Elissa — WDD9058 — position and weather

sailwx.info

Track history (hours):
 
Tides and Currents Weather Stations Pressure Air Temp Water Temp Dewpoint Dewpoint Depression Visibility Wind Speed Wind Dir Waves Ship Positions

Elissa

Owner: Ingram Barge Company, Nashville, TN. More information available from US FCC via Universal Licensing System and Coast Guard Vessel Documentation Center.

Last reported at 2015-Jul-01 14:33 UTC. Time now 2015-Jul-02 18:20 UTC.
Position N 29°55' W 090°05'.

Length 26 m; draft 3.6 m.

Type: Towing. MMSI: 367306290.

Date/timePositionNaut miles runAvg speedWind from/ knotsBaromVisibWave heightAir tempDewpointWater temp
2015-Jul-01 14:33N 29°55' W 090°05'18 2.9
2015-Jul-01 08:29N 29°59' W 090°25'1 0.8
2015-Jul-01 07:32N 29°60' W 090°26'40 3.3
2015-Jun-30 19:29N 30°16' W 091°07'0 0.4
2015-Jun-30 18:23N 30°16' W 091°08'3 3.2
2015-Jun-30 17:28N 30°19' W 091°09'6 7.0
2015-Jun-30 16:33N 30°25' W 091°12'3 2.9
2015-Jun-30 15:33N 30°28' W 091°12'2 2.3
2015-Jun-30 14:33N 30°25' W 091°12'0 0.1
2015-Jun-30 13:33N 30°25' W 091°12'0 0.0
2015-Jun-30 12:33N 30°25' W 091°12'0 0.0
2015-Jun-30 11:33N 30°25' W 091°12'0 0.0
2015-Jun-30 10:33N 30°25' W 091°12'0 0.0
2015-Jun-30 09:33N 30°25' W 091°12'0 0.0
2015-Jun-30 08:33N 30°25' W 091°12'0 0.0
2015-Jun-30 07:33N 30°25' W 091°12'0 0.0
2015-Jun-30 06:33N 30°25' W 091°12'0 0.0
2015-Jun-30 05:33N 30°25' W 091°12'2 1.8
2015-Jun-30 04:33N 30°27' W 091°12'2 2.1
2015-Jun-30 03:33N 30°25' W 091°12'3 2.8
2015-Jun-30 02:33N 30°23' W 091°14'5 2.4
2015-Jun-30 00:29N 30°20' W 091°09'2 2.3
2015-Jun-29 23:30N 30°19' W 091°11'5 0.9
2015-Jun-29 18:07N 30°16' W 091°07'2 3.3
2015-Jun-29 17:33N 30°14' W 091°08'53 1.9
2015-Jun-28 13:32N 29°57' W 090°10'53 3.3
2015-Jun-27 21:32N 30°15' W 091°07'5 2.3
2015-Jun-27 19:21N 30°19' W 091°11'3 3.8
2015-Jun-27 18:33N 30°21' W 091°14'8 7.7
2015-Jun-27 17:34N 30°28' W 091°12'0 0.0
2015-Jun-27 16:33N 30°28' W 091°12'0 0.0
2015-Jun-27 15:33N 30°28' W 091°12'1 1.2
2015-Jun-27 14:33N 30°27' W 091°12'4 3.7
2015-Jun-27 13:33N 30°23' W 091°13'5 4.8
2015-Jun-27 12:33N 30°28' W 091°12'0 0.2
2015-Jun-27 11:33N 30°28' W 091°12'3 2.8
2015-Jun-27 10:34N 30°25' W 091°12'5 4.6
2015-Jun-27 09:33N 30°21' W 091°14'4 4.4
2015-Jun-27 08:33N 30°20' W 091°09'4 4.4
2015-Jun-27 07:33N 30°18' W 091°14'5 4.8
2015-Jun-27 06:27N 30°16' W 091°08'3 2.8
2015-Jun-27 05:20N 30°13' W 091°09'37 1.7
2015-Jun-26 07:15N 30°01' W 090°28'3 3.8
2015-Jun-26 06:21N 29°59' W 090°25'2 2.1
2015-Jun-26 05:33N 29°58' W 090°24'4 4.0
2015-Jun-26 04:33N 29°56' W 090°20'5 4.5
2015-Jun-26 03:30N 29°58' W 090°15'4 3.7
2015-Jun-26 02:22N 29°56' W 090°11'1 0.9
2015-Jun-26 01:26N 29°57' W 090°10'30 2.3
2015-Jun-25 12:33N 30°01' W 090°44'25 1.5
2015-Jun-24 20:15N 30°16' W 091°07'1 1.0
2015-Jun-24 19:23N 30°16' W 091°08'5 1.9
2015-Jun-24 16:32N 30°19' W 091°13'3 2.8
2015-Jun-24 15:33N 30°21' W 091°15'7 6.7
2015-Jun-24 14:33N 30°28' W 091°12'0 0.0
2015-Jun-24 13:33N 30°28' W 091°12'2 2.2
2015-Jun-24 12:33N 30°25' W 091°12'0 0.0
2015-Jun-24 11:33N 30°25' W 091°12'0 0.0
2015-Jun-24 10:33N 30°25' W 091°12'0 0.0
2015-Jun-24 09:33N 30°25' W 091°12'0 0.0
2015-Jun-24 08:33N 30°25' W 091°12'0 0.0
2015-Jun-24 07:33N 30°25' W 091°12'0 0.1
2015-Jun-24 06:33N 30°25' W 091°12'0 0.0
2015-Jun-24 05:33N 30°25' W 091°12'0 0.0
2015-Jun-24 04:33N 30°25' W 091°12'2 1.7
2015-Jun-24 03:33N 30°27' W 091°12'3 3.2
2015-Jun-24 02:33N 30°24' W 091°13'3 3.2
2015-Jun-24 01:33N 30°21' W 091°14'3 3.3
2015-Jun-24 00:32N 30°21' W 091°10'2 1.5
2015-Jun-23 23:33N 30°19' W 091°11'4 1.2
2015-Jun-23 20:09N 30°16' W 091°08'41 1.3
2015-Jun-22 13:13N 29°59' W 090°24'2 3.2
2015-Jun-22 12:33N 29°57' W 090°23'3 2.9
2015-Jun-22 11:33N 29°56' W 090°20'3 2.9
2015-Jun-22 10:30N 29°58' W 090°17'6 2.5
2015-Jun-22 08:11N 29°56' W 090°11'53 3.3
2015-Jun-21 16:21N 30°16' W 091°07'  
Track history (hours):
 
Tides and Currents Weather Stations Pressure Air Temp Water Temp Dewpoint Dewpoint Depression Visibility Wind Speed Wind Dir Waves Ship Positions

Elissa

Owner: Ingram Barge Company, Nashville, TN. More information available from US FCC via Universal Licensing System and Coast Guard Vessel Documentation Center.

Last reported at 2015-Jul-01 14:33 UTC. Time now 2015-Jul-02 18:20 UTC.
Position N 29°55' W 090°05'.

Length 26 m; draft 3.6 m.

Type: Towing. MMSI: 367306290.

Date/timePositionNaut miles runAvg speedWind from/ knotsBaromVisibWave heightAir tempDewpointWater temp
2015-Jul-01 14:33N 29°55' W 090°05'18 2.9
2015-Jul-01 08:29N 29°59' W 090°25'1 0.8
2015-Jul-01 07:32N 29°60' W 090°26'40 3.3
2015-Jun-30 19:29N 30°16' W 091°07'0 0.4
2015-Jun-30 18:23N 30°16' W 091°08'3 3.2
2015-Jun-30 17:28N 30°19' W 091°09'6 7.0
2015-Jun-30 16:33N 30°25' W 091°12'3 2.9
2015-Jun-30 15:33N 30°28' W 091°12'2 2.3
2015-Jun-30 14:33N 30°25' W 091°12'0 0.1
2015-Jun-30 13:33N 30°25' W 091°12'0 0.0
2015-Jun-30 12:33N 30°25' W 091°12'0 0.0
2015-Jun-30 11:33N 30°25' W 091°12'0 0.0
2015-Jun-30 10:33N 30°25' W 091°12'0 0.0
2015-Jun-30 09:33N 30°25' W 091°12'0 0.0
2015-Jun-30 08:33N 30°25' W 091°12'0 0.0
2015-Jun-30 07:33N 30°25' W 091°12'0 0.0
2015-Jun-30 06:33N 30°25' W 091°12'0 0.0
2015-Jun-30 05:33N 30°25' W 091°12'2 1.8
2015-Jun-30 04:33N 30°27' W 091°12'2 2.1
2015-Jun-30 03:33N 30°25' W 091°12'3 2.8
2015-Jun-30 02:33N 30°23' W 091°14'5 2.4
2015-Jun-30 00:29N 30°20' W 091°09'2 2.3
2015-Jun-29 23:30N 30°19' W 091°11'5 0.9
2015-Jun-29 18:07N 30°16' W 091°07'2 3.3
2015-Jun-29 17:33N 30°14' W 091°08'53 1.9
2015-Jun-28 13:32N 29°57' W 090°10'53 3.3
2015-Jun-27 21:32N 30°15' W 091°07'5 2.3
2015-Jun-27 19:21N 30°19' W 091°11'3 3.8
2015-Jun-27 18:33N 30°21' W 091°14'8 7.7
2015-Jun-27 17:34N 30°28' W 091°12'0 0.0
2015-Jun-27 16:33N 30°28' W 091°12'0 0.0
2015-Jun-27 15:33N 30°28' W 091°12'1 1.2
2015-Jun-27 14:33N 30°27' W 091°12'4 3.7
2015-Jun-27 13:33N 30°23' W 091°13'5 4.8
2015-Jun-27 12:33N 30°28' W 091°12'0 0.2
2015-Jun-27 11:33N 30°28' W 091°12'3 2.8
2015-Jun-27 10:34N 30°25' W 091°12'5 4.6
2015-Jun-27 09:33N 30°21' W 091°14'4 4.4
2015-Jun-27 08:33N 30°20' W 091°09'4 4.4
2015-Jun-27 07:33N 30°18' W 091°14'5 4.8
2015-Jun-27 06:27N 30°16' W 091°08'3 2.8
2015-Jun-27 05:20N 30°13' W 091°09'37 1.7
2015-Jun-26 07:15N 30°01' W 090°28'3 3.8
2015-Jun-26 06:21N 29°59' W 090°25'2 2.1
2015-Jun-26 05:33N 29°58' W 090°24'4 4.0
2015-Jun-26 04:33N 29°56' W 090°20'5 4.5
2015-Jun-26 03:30N 29°58' W 090°15'4 3.7
2015-Jun-26 02:22N 29°56' W 090°11'1 0.9
2015-Jun-26 01:26N 29°57' W 090°10'30 2.3
2015-Jun-25 12:33N 30°01' W 090°44'25 1.5
2015-Jun-24 20:15N 30°16' W 091°07'1 1.0
2015-Jun-24 19:23N 30°16' W 091°08'5 1.9
2015-Jun-24 16:32N 30°19' W 091°13'3 2.8
2015-Jun-24 15:33N 30°21' W 091°15'7 6.7
2015-Jun-24 14:33N 30°28' W 091°12'0 0.0
2015-Jun-24 13:33N 30°28' W 091°12'2 2.2
2015-Jun-24 12:33N 30°25' W 091°12'0 0.0
2015-Jun-24 11:33N 30°25' W 091°12'0 0.0
2015-Jun-24 10:33N 30°25' W 091°12'0 0.0
2015-Jun-24 09:33N 30°25' W 091°12'0 0.0
2015-Jun-24 08:33N 30°25' W 091°12'0 0.0
2015-Jun-24 07:33N 30°25' W 091°12'0 0.1
2015-Jun-24 06:33N 30°25' W 091°12'0 0.0
2015-Jun-24 05:33N 30°25' W 091°12'0 0.0
2015-Jun-24 04:33N 30°25' W 091°12'2 1.7
2015-Jun-24 03:33N 30°27' W 091°12'3 3.2
2015-Jun-24 02:33N 30°24' W 091°13'3 3.2
2015-Jun-24 01:33N 30°21' W 091°14'3 3.3
2015-Jun-24 00:32N 30°21' W 091°10'2 1.5
2015-Jun-23 23:33N 30°19' W 091°11'4 1.2
2015-Jun-23 20:09N 30°16' W 091°08'41 1.3
2015-Jun-22 13:13N 29°59' W 090°24'2 3.2
2015-Jun-22 12:33N 29°57' W 090°23'3 2.9
2015-Jun-22 11:33N 29°56' W 090°20'3 2.9
2015-Jun-22 10:30N 29°58' W 090°17'6 2.5
2015-Jun-22 08:11N 29°56' W 090°11'53 3.3
2015-Jun-21 16:21N 30°16' W 091°07'  

Dump ship's entire track history